• Join FlightAware (Why Join?)
  • Login
  • US Flag 
07:00PM EST


 

Airport Tracker/Info


-or-


 

Live Flight TrackerFlight Track Log ✈ SWA1086 ✈ 28-Apr-2013 ✈ KDAL - KOKC

Flight Track Log - Related Links

Times and Time Zones

All times are in EDT time to prevent confusion due to time zone crossing. See the SWA1086 flight status page for this flight to view local times or setup timezone preferences in your user account.

Time Position Orientation Groundspeed Altitude Reporting Facility
EDT Latitude Longitude Course Direction KTS MPH feet Rate Location/Type
09:34AM 32.8278 -96.8250 351° North 159 183 1,900  Level Fort Worth Center
09:35AM 32.8006 -96.7783 125° Southeast 128 147 3,800 2,820 Climbing Fort Worth Center
09:36AM 32.8631 -96.7631 12° North 129 148 7,600 3,660 Climbing Fort Worth Center
09:37AM 32.9258 -96.7947 337° Northwest 172 198 11,200 3,300 Climbing Fort Worth Center
09:39AM 33.0850 -96.8903 333° Northwest 310 357 17,500 3,060 Climbing Fort Worth Center
09:40AM 33.2812 -96.9429 351° North  Level FlightAware Approximate
09:40AM 33.1769 -96.9469 333° Northwest 333 383 20,400  Level Fort Worth Center
09:41AM 33.2647 -96.9811 342° North 357 411 22,800 2,400 Climbing Fort Worth Center
09:42AM 33.3733 -97.0106 347° North 376 433 25,300 2,580 Climbing Fort Worth Center
09:43AM 33.4778 -97.0400 347° North 385 443 28,000 1,800 Climbing Fort Worth Center
09:44AM 33.5844 -97.0694 347° North 385 443 29,000 480 Climbing Fort Worth Center
09:45AM 33.6992 -97.0864 353° North 401 461 29,000  Level Fort Worth Center
09:46AM 33.8161 -97.0883 359° North 411 473 29,000  Level Fort Worth Center
09:47AM 33.9331 -97.0856 North 417 480 29,000  Level Fort Worth Center
09:48AM 34.0603 -97.0850 360° North 417 480 29,000  Level Fort Worth Center
09:49AM 34.1603 -97.0847 360° North 411 473 29,000 -600 Level Fort Worth Center
09:50AM 34.2731 -97.1269 343° North 411 473 27,800 -2,100 Descending Fort Worth Center
09:51AM 34.3817 -97.1719 341° North 411 473 24,900 -2,700 Descending Fort Worth Center
09:52AM 34.4861 -97.2144 341° North 405 466 22,400 -2,520 Descending Fort Worth Center
09:53AM 34.5822 -97.2572 340° North 382 440 19,900 -2,760 Descending Fort Worth Center
09:54AM 34.6406 -97.2797 342° North 353 406 18,300 -2,220 Descending Fort Worth Center
09:54AM 34.6742 -97.2972 337° Northwest 366 421 17,700 -2,040 Descending Fort Worth Center
09:55AM 34.7658 -97.3303 343° North 345 397 15,300 -2,340 Descending Fort Worth Center
09:56AM 34.8556 -97.3578 346° North 335 386 13,100 -2,220 Descending Fort Worth Center
09:57AM 34.9389 -97.3831 346° North 324 373 10,900 -2,280 Descending Fort Worth Center
09:58AM 34.9661 -97.3908 347° North 312 359 10,300 -900 Descending Fort Worth Center
09:58AM 35.0183 -97.4058 347° North 311 358 10,000 -420 Descending Fort Worth Center
09:59AM 35.0392 -97.4136 343° North 260 299 9,900 -1,620 Descending Fort Worth Center
09:59AM 35.0872 -97.4236 350° North 277 319 8,400 -2,580 Descending Fort Worth Center
10:00AM 35.1164 -97.4339 344° North 258 297 7,300 -2,100 Descending Fort Worth Center
10:00AM 35.1622 -97.4439 350° North 267 307 6,300 -1,740 Descending Fort Worth Center
10:01AM 35.1914 -97.4542 344° North 288 331 5,600 -1,620 Descending Fort Worth Center
10:01AM 35.2372 -97.4669 347° North 272 313 4,700 -1,620 Descending Fort Worth Center
10:02AM 35.2664 -97.4772 344° North 279 321 4,000 -1,620 Descending Fort Worth Center
10:02AM 35.3103 -97.4900 347° North 272 313 3,100 -1,020 Descending Fort Worth Center
10:03AM 35.3394 -97.5028 340° North 265 305 3,000 -120 Descending Fort Worth Center
10:03AM 35.3769 -97.5206 339° North 264 304 3,000  Level Fort Worth Center
10:04AM 35.3958 -97.5308 336° Northwest 214 246 3,000 -120 Level Fort Worth Center
10:04AM 35.4292 -97.5486 337° Northwest 237 273 2,900 -420 Descending Fort Worth Center
10:05AM 35.4394 -97.5664 305° West 150 173 2,600 -840 Descending Fort Worth Center
10:05AM 35.4353 -97.5867 256° West 164 189 2,100 -900 Descending Fort Worth Center
10:06AM 35.4186 -97.5944 201° Southwest 101 116 1,700 -840 Descending Fort Worth Center
10:06AM 35.4019 -97.5944 180° South 75 86 1,300 5,520 Descending Fort Worth Center
10:07AM 35.3894 -97.6147 233° Southwest 75 86 11,000 4,800 Climbing Fort Worth Center
10:08AM 35.3789 -97.6325 234° Southwest 75 86 11,000  Level Fort Worth Center